Time;durP1;ratioP1;P1;durP2;ratioP2;P2;SDS_P1;SDS_P2;PMS_P1;PMS_P2;Temp;Humidity;BMP_temperature;BMP_pressure;BME280_temperature;BME280_humidity;BME280_pressure;Samples;Min_cycle;Max_cycle;Signal;HPM_P1;HPM_P2
2020/12/07 00:01:26;;;;;;;10.60;2.73;;;;;;;-5.61;69.38;101275.00;1687874;82;21440;-54
2020/12/07 00:03:53;;;;;;;8.90;2.27;;;;;;;-5.65;69.38;101272.66;1691885;82;21597;-53
2020/12/07 00:06:21;;;;;;;7.43;2.83;;;;;;;-5.67;69.41;101275.62;1690415;82;21662;-52
2020/12/07 00:08:50;;;;;;;6.80;2.23;;;;;;;-5.68;69.40;101274.24;1691942;82;21990;-53
2020/12/07 00:11:17;;;;;;;7.90;2.40;;;;;;;-5.73;69.33;101275.38;1690580;82;21182;-53
2020/12/07 00:13:45;;;;;;;10.20;2.77;;;;;;;-5.84;69.37;101271.41;1690902;82;21337;-54
2020/12/07 00:16:12;;;;;;;6.30;2.10;;;;;;;-5.92;69.50;101280.72;1685970;82;22232;-54
2020/12/07 00:18:39;;;;;;;7.07;1.87;;;;;;;-5.97;69.58;101271.78;1686325;82;21208;-54
2020/12/07 00:21:08;;;;;;;6.13;1.83;;;;;;;-6.00;69.65;101273.85;1685611;82;21447;-54
2020/12/07 00:23:36;;;;;;;9.30;2.73;;;;;;;-6.05;69.65;101273.19;1687906;82;21169;-55
2020/12/07 00:26:07;;;;;;;6.63;1.80;;;;;;;-6.13;69.82;101284.25;1692348;82;22362;-54
2020/12/07 00:28:34;;;;;;;3.33;1.23;;;;;;;-6.21;69.91;101281.68;1687212;82;21198;-55
2020/12/07 00:31:04;;;;;;;7.27;2.10;;;;;;;-6.27;70.04;101277.50;1690496;82;21168;-55
2020/12/07 00:33:32;;;;;;;6.23;1.60;;;;;;;-6.27;70.11;101273.98;1690534;82;21305;-53
2020/12/07 00:36:00;;;;;;;6.73;2.17;;;;;;;-6.28;70.19;101273.08;1688160;82;21226;-53
2020/12/07 00:38:27;;;;;;;6.13;1.90;;;;;;;-6.28;70.22;101274.39;1685302;82;21227;-52
2020/12/07 00:40:54;;;;;;;7.43;2.00;;;;;;;-6.26;70.29;101276.67;1679657;82;21618;-52
2020/12/07 00:43:22;;;;;;;7.93;1.80;;;;;;;-6.25;70.26;101274.95;1678344;83;21195;-53
2020/12/07 00:45:51;;;;;;;7.67;1.63;;;;;;;-6.27;70.30;101275.28;1687821;82;21172;-52
2020/12/07 00:48:18;;;;;;;7.50;2.90;;;;;;;-6.29;70.29;101269.97;1681982;82;21195;-53
2020/12/07 00:50:45;;;;;;;6.07;1.60;;;;;;;-6.29;70.32;101267.77;1684787;82;21214;-51
2020/12/07 00:53:13;;;;;;;9.13;2.77;;;;;;;-6.31;70.31;101265.52;1688963;82;21598;-52
2020/12/07 00:55:40;;;;;;;5.43;1.83;;;;;;;-6.35;70.29;101272.34;1692332;82;21585;-54
2020/12/07 00:58:07;;;;;;;8.23;2.40;;;;;;;-6.40;70.32;101272.57;1686927;82;21665;-53
2020/12/07 01:00:35;;;;;;;7.93;2.47;;;;;;;-6.44;70.37;101280.20;1686650;82;21179;-52
2020/12/07 01:03:03;;;;;;;6.90;1.63;;;;;;;-6.47;70.38;101275.75;1688780;82;21487;-51
2020/12/07 01:05:30;;;;;;;7.07;1.80;;;;;;;-6.46;70.39;101270.10;1686460;82;21195;-52
2020/12/07 01:07:58;;;;;;;6.10;1.60;;;;;;;-6.49;70.37;101281.33;1687216;82;21185;-53
2020/12/07 01:10:25;;;;;;;5.80;1.77;;;;;;;-6.54;70.33;101269.73;1684960;82;21219;-52
2020/12/07 01:12:54;;;;;;;6.50;2.17;;;;;;;-6.56;70.38;101265.77;1684066;82;21183;-52
2020/12/07 01:15:21;;;;;;;5.73;1.67;;;;;;;-6.58;70.38;101272.66;1690609;82;22328;-52
2020/12/07 01:17:49;;;;;;;7.97;2.03;;;;;;;-6.60;70.32;101258.58;1663512;82;21237;-51
2020/12/07 01:20:18;;;;;;;8.50;2.43;;;;;;;-6.60;70.32;101265.13;1685690;82;21650;-52
2020/12/07 01:22:45;;;;;;;6.20;1.93;;;;;;;-6.63;70.27;101255.81;1685020;82;21191;-54
2020/12/07 01:25:13;;;;;;;6.57;1.70;;;;;;;-6.64;70.27;101255.37;1685992;82;21528;-54
2020/12/07 01:27:46;;;;;;;7.70;1.20;;;;;;;-6.67;70.22;101260.45;1684958;82;21327;-52
2020/12/07 01:30:15;;;;;;;6.57;2.20;;;;;;;-6.71;70.22;101264.16;1684250;82;21250;-51
2020/12/07 01:32:42;;;;;;;6.30;1.80;;;;;;;-6.73;70.26;101268.05;1686337;82;21248;-52
2020/12/07 01:35:10;;;;;;;9.87;2.50;;;;;;;-6.76;70.21;101267.00;1688791;82;21127;-53
2020/12/07 01:37:37;;;;;;;12.87;2.73;;;;;;;-6.80;70.28;101271.63;1689238;82;21092;-54
2020/12/07 01:40:05;;;;;;;5.57;2.13;;;;;;;-6.84;70.25;101274.52;1675071;82;21206;-52
2020/12/07 01:42:33;;;;;;;6.30;1.70;;;;;;;-6.90;70.31;101268.59;1662156;84;21770;-53
2020/12/07 01:45:01;;;;;;;6.73;1.57;;;;;;;-6.92;70.34;101265.42;1665083;84;21202;-52
2020/12/07 01:47:29;;;;;;;6.70;2.53;;;;;;;-6.93;70.37;101271.48;1662587;84;21191;-52
2020/12/07 01:50:07;;;;;;;9.40;2.40;;;;;;;-6.97;70.41;101257.75;1868325;75;24098;-54
2020/12/07 01:52:35;;;;;;;7.87;2.30;;;;;;;-7.07;70.49;101266.03;1834536;76;21158;-52
2020/12/07 01:55:03;;;;;;;5.73;2.37;;;;;;;-7.10;70.54;101261.95;1840240;76;21510;-52
2020/12/07 01:57:47;;;;;;;9.35;1.35;;;;;;;-7.12;70.58;101259.26;1837354;76;21178;-54
2020/12/07 02:00:16;;;;;;;8.90;1.77;;;;;;;-7.14;70.59;101258.69;1783291;78;21167;-53
2020/12/07 02:02:53;;;;;;;10.50;5.07;;;;;;;-7.12;70.58;101257.95;1852639;75;27439;-53
2020/12/07 02:05:23;;;;;;;13.20;3.83;;;;;;;-7.16;70.53;101254.73;1836228;77;21150;-53
2020/12/07 02:08:13;;;;;;;9.57;3.17;;;;;;;-7.13;70.46;101250.92;1842479;76;21008;-53
2020/12/07 02:10:44;;;;;;;12.23;2.60;;;;;;;-7.15;70.48;101253.01;1836612;77;21604;-52
2020/12/07 02:13:13;;;;;;;8.80;2.00;;;;;;;-7.18;70.44;101258.98;1839369;76;21149;-55
2020/12/07 02:15:42;;;;;;;6.87;2.10;;;;;;;-7.21;70.47;101255.31;1842033;77;20945;-55
2020/12/07 02:18:09;;;;;;;8.97;2.17;;;;;;;-7.23;70.47;101267.05;1839040;77;20996;-54
2020/12/07 02:20:37;;;;;;;8.37;2.13;;;;;;;-7.23;70.45;101272.69;1837586;76;21931;-52
2020/12/07 02:23:05;;;;;;;10.80;3.43;;;;;;;-7.24;70.49;101269.17;1843160;76;21218;-51
2020/12/07 02:25:34;;;;;;;7.03;2.57;;;;;;;-7.24;70.49;101271.79;1776843;78;21143;-53
2020/12/07 02:28:01;;;;;;;6.83;2.10;;;;;;;-7.26;70.48;101257.73;1790566;78;21853;-54
2020/12/07 02:30:29;;;;;;;7.93;2.03;;;;;;;-7.29;70.42;101253.66;1784463;78;21848;-54
2020/12/07 02:32:57;;;;;;;7.90;2.57;;;;;;;-7.32;70.44;101258.35;1759736;79;21724;-53
2020/12/07 02:35:26;;;;;;;9.67;2.90;;;;;;;-7.33;70.45;101262.20;1771135;78;21581;-54
2020/12/07 02:37:53;;;;;;;8.57;2.43;;;;;;;-7.38;70.46;101256.73;1766284;78;21194;-54
2020/12/07 02:40:22;;;;;;;8.30;2.37;;;;;;;-7.40;70.49;101262.73;1784732;78;21182;-53
2020/12/07 02:42:51;;;;;;;11.50;2.97;;;;;;;-7.41;70.55;101267.08;1773594;78;21198;-53
2020/12/07 02:45:20;;;;;;;9.33;2.17;;;;;;;-7.41;70.52;101260.53;1770502;78;21666;-53
2020/12/07 02:47:49;;;;;;;9.70;2.13;;;;;;;-7.41;70.48;101264.87;1769568;78;21209;-54
2020/12/07 02:50:17;;;;;;;10.53;2.17;;;;;;;-7.41;70.43;101267.48;1743625;78;21683;-54
2020/12/07 02:52:45;;;;;;;6.47;1.97;;;;;;;-7.41;70.37;101271.00;1743725;78;21478;-52
2020/12/07 02:55:13;;;;;;;12.50;2.60;;;;;;;-7.40;70.37;101273.20;1766442;78;21167;-50
2020/12/07 02:57:42;;;;;;;7.53;1.87;;;;;;;-7.42;70.29;101274.43;1769262;78;21135;-50
2020/12/07 03:00:11;;;;;;;8.20;2.77;;;;;;;-7.43;70.19;101280.48;1790443;78;21123;-50
2020/12/07 03:02:40;;;;;;;9.13;2.10;;;;;;;-7.46;70.15;101276.40;1776471;78;21129;-50
2020/12/07 03:05:09;;;;;;;6.77;1.83;;;;;;;-7.45;70.12;101273.38;1796125;78;21174;-49
2020/12/07 03:07:39;;;;;;;7.33;2.37;;;;;;;-7.46;70.13;101280.33;1780651;78;21142;-52
2020/12/07 03:10:06;;;;;;;6.93;2.20;;;;;;;-7.44;70.07;101286.94;1753748;79;21655;-50
2020/12/07 03:12:35;;;;;;;6.27;2.13;;;;;;;-7.44;70.03;101289.56;1773467;78;21431;-51
2020/12/07 03:15:04;;;;;;;8.93;1.97;;;;;;;-7.46;70.00;101289.89;1763937;79;21182;-50
2020/12/07 03:17:33;;;;;;;8.83;2.03;;;;;;;-7.45;69.95;101289.07;1795549;78;21222;-53
2020/12/07 03:20:00;;;;;;;5.07;2.27;;;;;;;-7.46;69.90;101285.55;1799205;78;21716;-52
2020/12/07 03:22:29;;;;;;;6.63;1.43;;;;;;;-7.47;69.84;101278.53;1776218;78;21676;-51
2020/12/07 03:24:56;;;;;;;7.53;1.80;;;;;;;-7.49;69.76;101284.13;1793959;78;21183;-50
2020/12/07 03:27:24;;;;;;;7.23;1.97;;;;;;;-7.50;69.74;101284.05;1762481;79;21196;-50
2020/12/07 03:29:53;;;;;;;6.20;1.77;;;;;;;-7.55;69.70;101274.65;1795298;78;21204;-50
2020/12/07 03:32:22;;;;;;;11.60;2.17;;;;;;;-7.58;69.70;101269.70;1777178;78;21138;-49
2020/12/07 03:34:50;;;;;;;6.93;1.47;;;;;;;-7.58;69.69;101274.94;1759350;79;21636;-49
2020/12/07 03:37:18;;;;;;;6.57;1.57;;;;;;;-7.59;69.64;101294.05;1752507;79;21173;-52
2020/12/07 03:39:50;;;;;;;6.63;1.40;;;;;;;-7.62;69.60;101272.98;1769522;79;21190;-49
2020/12/07 03:42:17;;;;;;;5.27;1.50;;;;;;;-7.65;69.63;101274.61;1763441;79;21167;-51
2020/12/07 03:44:45;;;;;;;5.93;1.90;;;;;;;-7.69;69.63;101271.38;1777089;78;21186;-50
2020/12/07 03:47:14;;;;;;;6.60;1.97;;;;;;;-7.68;69.64;101278.81;1773371;79;21621;-49
2020/12/07 03:49:48;;;;;;;6.60;1.27;;;;;;;-7.70;69.62;101275.22;1758726;78;21138;-50
2020/12/07 03:52:12;;;;;;;5.87;1.90;;;;;;;-7.73;69.65;101269.83;1795609;78;21111;-48
2020/12/07 03:54:40;;;;;;;7.40;1.23;;;;;;;-7.70;69.65;101266.07;1777497;78;21135;-50
2020/12/07 03:57:08;;;;;;;6.07;2.00;;;;;;;-7.70;69.64;101269.59;1764960;79;21531;-48
2020/12/07 03:59:38;;;;;;;7.80;2.03;;;;;;;-7.69;69.61;101266.16;1775374;78;21182;-49
2020/12/07 04:02:06;;;;;;;5.73;2.30;;;;;;;-7.69;69.58;101271.79;1790851;78;21227;-49
2020/12/07 04:04:57;;;;;;;4.97;1.50;;;;;;;-7.72;69.55;101272.53;1765383;78;21621;-49
2020/12/07 04:07:21;;;;;;;8.37;2.07;;;;;;;-7.72;69.57;101280.38;1759848;78;21166;-49
2020/12/07 04:09:49;;;;;;;4.73;1.33;;;;;;;-7.72;69.52;101272.94;1769142;78;21819;-49
2020/12/07 04:12:16;;;;;;;7.90;2.43;;;;;;;-7.72;69.49;101275.14;1787903;78;21635;-48
2020/12/07 04:14:45;;;;;;;8.37;2.07;;;;;;;-7.73;69.42;101272.03;1765840;78;21222;-48
2020/12/07 04:17:13;;;;;;;5.83;1.47;;;;;;;-7.72;69.45;101276.45;1787420;79;21187;-48
2020/12/07 04:19:40;;;;;;;4.93;1.43;;;;;;;-7.70;69.41;101271.30;1766212;78;21192;-50
2020/12/07 04:22:07;;;;;;;8.83;1.67;;;;;;;-7.69;69.37;101271.79;1767869;78;21183;-51
2020/12/07 04:24:34;;;;;;;5.77;1.40;;;;;;;-7.74;69.26;101268.94;1765927;78;21202;-49
2020/12/07 04:27:01;;;;;;;6.30;1.40;;;;;;;-7.78;69.26;101265.70;1788895;79;21907;-49
2020/12/07 04:29:29;;;;;;;8.87;1.20;;;;;;;-7.82;69.24;101278.13;1791918;78;21190;-51
2020/12/07 04:31:56;;;;;;;9.93;1.80;;;;;;;-7.85;69.31;101272.77;1764719;78;21206;-48
2020/12/07 04:34:23;;;;;;;5.27;1.70;;;;;;;-7.86;69.33;101268.35;1790524;79;21155;-51
2020/12/07 04:36:56;;;;;;;5.50;1.43;;;;;;;-7.87;69.32;101263.94;1767098;78;21211;-49
2020/12/07 04:39:23;;;;;;;6.70;1.43;;;;;;;-7.86;69.33;101269.66;1764931;78;21198;-47
2020/12/07 04:41:50;;;;;;;4.27;1.30;;;;;;;-7.87;69.32;101262.64;1767845;78;21532;-50
2020/12/07 04:44:18;;;;;;;5.53;1.43;;;;;;;-7.86;69.27;101267.05;1789470;79;21200;-48
2020/12/07 04:46:46;;;;;;;8.47;2.17;;;;;;;-7.88;69.30;101267.78;1765998;78;21293;-52
2020/12/07 04:49:15;;;;;;;4.77;1.60;;;;;;;-7.88;69.27;101265.17;1764897;78;21214;-49
2020/12/07 04:51:42;;;;;;;8.67;1.90;;;;;;;-7.89;69.27;101263.38;1766335;78;21238;-50
2020/12/07 04:54:10;;;;;;;6.27;1.33;;;;;;;-7.89;69.26;101260.34;1779541;78;21211;-48
2020/12/07 04:56:37;;;;;;;6.90;1.83;;;;;;;-7.89;69.32;101256.43;1758227;79;21194;-50
2020/12/07 04:59:05;;;;;;;8.50;1.73;;;;;;;-7.88;69.25;101253.00;1770528;78;21179;-50
2020/12/07 05:01:32;;;;;;;7.07;1.47;;;;;;;-7.87;69.25;101239.52;1765599;78;21388;-50
2020/12/07 05:04:00;;;;;;;7.70;2.30;;;;;;;-7.87;69.19;101244.75;1761268;78;21187;-48
2020/12/07 05:06:29;;;;;;;6.50;1.10;;;;;;;-7.89;69.17;101241.16;1782212;78;21195;-49
2020/12/07 05:08:58;;;;;;;7.17;1.47;;;;;;;-7.93;69.17;101238.82;1769677;78;21218;-51
2020/12/07 05:11:26;;;;;;;7.43;1.50;;;;;;;-7.91;69.24;101246.74;1763640;78;21171;-50
2020/12/07 05:14:06;;;;;;;5.73;1.67;;;;;;;-7.89;69.21;101246.38;1764736;78;22012;-49
2020/12/07 05:16:30;;;;;;;6.40;1.60;;;;;;;-7.87;69.17;101242.13;1768404;78;21434;-48
2020/12/07 05:19:00;;;;;;;6.77;1.37;;;;;;;-7.86;69.14;101239.60;1770878;78;21522;-48
2020/12/07 05:21:28;;;;;;;10.47;1.67;;;;;;;-7.87;69.13;101240.42;1770326;78;22347;-50
2020/12/07 05:23:58;;;;;;;5.20;1.33;;;;;;;-7.90;69.11;101240.26;1738603;78;21618;-49
2020/12/07 05:26:27;;;;;;;11.60;1.80;;;;;;;-7.92;69.13;101234.08;1716247;78;21230;-48
2020/12/07 05:28:56;;;;;;;6.57;1.63;;;;;;;-7.92;69.16;101233.19;1721917;78;21597;-49
2020/12/07 05:31:23;;;;;;;5.63;1.57;;;;;;;-7.92;69.16;101236.70;1767975;78;21175;-51
2020/12/07 05:33:50;;;;;;;4.50;1.27;;;;;;;-7.92;69.17;101233.19;1766906;78;21601;-49
2020/12/07 05:36:18;;;;;;;8.17;2.03;;;;;;;-7.93;69.17;101234.91;1768608;78;21232;-51
2020/12/07 05:38:45;;;;;;;7.63;1.80;;;;;;;-7.92;69.14;101241.92;1767009;78;21695;-51
2020/12/07 05:41:12;;;;;;;5.93;1.20;;;;;;;-7.92;69.16;101240.62;1769306;78;22819;-51
2020/12/07 05:43:39;;;;;;;6.63;1.67;;;;;;;-7.90;69.13;101253.33;1762248;78;21230;-51
2020/12/07 05:46:06;;;;;;;5.83;1.27;;;;;;;-7.89;69.13;101251.20;1784928;78;21194;-48
2020/12/07 05:48:35;;;;;;;6.83;1.50;;;;;;;-7.90;69.10;101248.50;1765684;78;21174;-49
2020/12/07 05:51:04;;;;;;;6.50;1.97;;;;;;;-7.91;69.11;101259.81;1770190;78;21640;-50
2020/12/07 05:53:40;;;;;;;6.17;1.60;;;;;;;-7.96;69.12;101255.65;1759566;80;21219;-50
2020/12/07 05:56:08;;;;;;;7.40;1.33;;;;;;;-7.98;69.12;101258.59;1771490;78;21206;-49
2020/12/07 05:59:09;;;;;;;6.10;1.37;;;;;;;-7.98;69.12;101262.51;1772686;78;21190;-48
2020/12/07 06:01:37;;;;;;;6.80;1.57;;;;;;;-8.03;69.20;101266.63;1771951;78;21514;-47
2020/12/07 06:04:04;;;;;;;8.00;2.23;;;;;;;-8.08;69.26;101261.15;1787975;78;21194;-47
2020/12/07 06:06:34;;;;;;;7.40;1.53;;;;;;;-8.11;69.33;101264.94;1765295;78;21644;-48
2020/12/07 06:09:06;;;;;;;10.10;1.50;;;;;;;-8.10;69.38;101264.12;1782697;79;21571;-49
2020/12/07 06:11:48;;;;;;;10.10;2.13;;;;;;;-8.06;69.36;101262.54;1757982;79;21103;-51
2020/12/07 06:14:15;;;;;;;10.13;1.87;;;;;;;-8.06;69.40;101258.62;1777201;79;22011;-49
2020/12/07 06:16:45;;;;;;;11.97;2.97;;;;;;;-8.03;69.39;101261.39;1768756;78;21361;-47
2020/12/07 06:19:16;;;;;;;12.87;2.47;;;;;;;-8.05;69.37;101264.33;1748244;78;21193;-48
2020/12/07 06:22:00;;;;;;;6.87;1.77;;;;;;;-8.08;69.45;101262.45;1769251;78;21196;-50
2020/12/07 06:24:41;;;;;;;8.90;2.15;;;;;;;-8.07;69.48;101257.72;1791460;79;21095;-50
2020/12/07 06:27:12;;;;;;;10.27;2.40;;;;;;;-8.04;69.45;101265.72;1767742;78;21522;-50
2020/12/07 06:30:00;;;;;;;13.57;3.00;;;;;;;-8.00;69.53;101254.13;1768359;78;21654;-49
2020/12/07 06:32:48;;;;;;;10.00;2.40;;;;;;;-7.94;69.49;101257.94;1764143;78;21219;-50
2020/12/07 06:35:15;;;;;;;9.47;2.43;;;;;;;-7.89;69.42;101253.81;1768199;78;21747;-49
2020/12/07 06:37:50;;;;;;;10.90;2.30;;;;;;;-7.83;69.28;101251.94;1763177;79;22368;-51
2020/12/07 06:40:25;;;;;;;8.43;2.73;;;;;;;-7.83;69.27;101245.40;1770825;79;21661;-49
2020/12/07 06:42:52;;;;;;;11.87;2.57;;;;;;;-7.83;69.25;101246.70;1767420;78;21956;-50
2020/12/07 06:45:27;;;;;;;8.73;2.30;;;;;;;-7.81;69.25;101243.73;1770136;78;21210;-50
2020/12/07 06:47:54;;;;;;;5.47;1.50;;;;;;;-7.76;69.23;101244.46;1784175;79;21640;-52
2020/12/07 06:50:27;;;;;;;5.33;1.37;;;;;;;-7.69;69.19;101242.63;1791818;78;21983;-50
2020/12/07 06:52:51;;;;;;;5.80;1.70;;;;;;;-7.62;69.10;101241.59;1792171;78;21179;-49
2020/12/07 06:55:18;;;;;;;6.53;1.80;;;;;;;-7.55;68.96;101246.30;1784672;79;21279;-49
2020/12/07 06:57:47;;;;;;;8.23;2.40;;;;;;;-7.52;68.94;101241.22;1770973;78;21550;-48
2020/12/07 07:00:25;;;;;;;5.43;1.40;;;;;;;-7.47;68.90;101241.02;1770913;78;21123;-49
2020/12/07 07:02:56;;;;;;;7.97;1.63;;;;;;;-7.42;68.78;101239.53;1782063;79;21163;-50
2020/12/07 07:05:29;;;;;;;9.03;1.73;;;;;;;-7.40;68.46;101237.89;1765714;79;21173;-49
2020/12/07 07:07:58;;;;;;;6.67;1.90;;;;;;;-7.38;68.56;101240.14;1764472;79;21832;-50
2020/12/07 07:10:26;;;;;;;10.10;1.87;;;;;;;-7.33;68.52;101236.04;1788635;79;21168;-48
2020/12/07 07:12:53;;;;;;;7.20;2.17;;;;;;;-7.25;68.43;101250.37;1770089;78;21199;-49
2020/12/07 07:15:21;;;;;;;7.30;1.60;;;;;;;-7.18;68.33;101248.93;1779653;78;21175;-49
2020/12/07 07:17:48;;;;;;;5.00;1.67;;;;;;;-7.13;68.24;101236.94;1767091;78;21524;-51
2020/12/07 07:20:16;;;;;;;7.23;1.67;;;;;;;-7.07;68.09;101235.52;1774425;78;21358;-48
2020/12/07 07:22:48;;;;;;;11.70;2.50;;;;;;;-7.02;67.97;101237.92;1766352;78;21281;-49
2020/12/07 07:30:21;;;;;;;8.10;1.87;;;;;;;-6.91;67.60;101238.01;1768055;78;21191;-51
2020/12/07 07:32:51;;;;;;;8.83;2.03;;;;;;;-6.85;67.41;101239.09;1769467;78;21397;-51
2020/12/07 07:35:20;;;;;;;7.90;1.63;;;;;;;-6.82;67.39;101242.76;1768209;78;21721;-48
2020/12/07 07:37:48;;;;;;;6.40;1.80;;;;;;;-6.78;67.43;101235.50;1769938;78;21638;-49
2020/12/07 07:40:18;;;;;;;6.10;1.90;;;;;;;-6.69;67.14;101245.49;1769795;78;21763;-51
2020/12/07 07:42:56;;;;;;;3.60;1.60;;;;;;;-6.63;67.08;101240.10;1777192;78;21478;-50
2020/12/07 07:45:29;;;;;;;6.97;1.97;;;;;;;-6.57;66.97;101243.43;1774304;78;21801;-49
2020/12/07 07:48:12;;;;;;;4.17;1.57;;;;;;;-6.53;66.50;101247.54;1766212;78;21203;-50
2020/12/07 08:08:05;;;;;;;5.57;1.63;;;;;;;-6.16;65.98;101218.99;1787301;78;21203;-51
2020/12/07 08:15:35;;;;;;;6.23;2.13;;;;;;;-5.92;65.36;101220.00;1773841;78;21590;-49
2020/12/07 08:20:38;;;;;;;10.17;1.70;;;;;;;-5.76;64.90;101212.30;1865845;75;24072;-51
2020/12/07 08:23:09;;;;;;;8.73;2.03;;;;;;;-5.77;64.66;101217.06;1841638;76;20972;-50
2020/12/07 08:25:49;;;;;;;7.23;1.80;;;;;;;-5.74;64.64;101209.33;1840658;76;22057;-52
2020/12/07 08:28:37;;;;;;;6.03;1.87;;;;;;;-5.66;64.65;101216.19;1849181;76;20960;-50
2020/12/07 08:31:22;;;;;;;3.30;1.60;;;;;;;-5.59;64.45;101216.48;1810647;77;21057;-50
2020/12/07 08:34:07;;;;;;;5.27;1.90;;;;;;;-5.49;64.35;101221.69;1807065;77;21110;-51
2020/12/07 08:36:34;;;;;;;8.03;2.30;;;;;;;-5.41;63.77;101211.97;1770477;79;21526;-47
2020/12/07 08:39:01;;;;;;;7.17;1.93;;;;;;;-5.38;63.48;101208.16;1807930;77;20996;-49
2020/12/07 08:41:30;;;;;;;9.87;1.90;;;;;;;-5.32;63.31;101218.41;1770926;78;21049;-51
2020/12/07 08:44:00;;;;;;;4.07;1.60;;;;;;;-5.30;63.03;101213.70;1780104;79;21151;-52
2020/12/07 08:46:29;;;;;;;6.53;1.67;;;;;;;-5.27;62.97;101211.62;1805182;77;21458;-49
2020/12/07 08:48:57;;;;;;;8.93;2.10;;;;;;;-5.27;62.64;101209.00;1778701;79;21549;-50
2020/12/07 08:51:27;;;;;;;6.77;1.70;;;;;;;-5.28;62.67;101193.66;1788065;79;21832;-48
2020/12/07 08:53:55;;;;;;;8.13;2.10;;;;;;;-5.24;62.51;101190.72;1781640;78;21214;-53
2020/12/07 08:58:08;;;;;;;4.80;1.63;;;;;;;-5.16;62.33;101195.84;1793379;78;25555;-49
2020/12/07 09:00:35;;;;;;;7.33;2.67;;;;;;;-5.18;62.30;101199.71;1768079;79;21195;-49
2020/12/07 09:03:02;;;;;;;10.50;2.27;;;;;;;-5.13;62.17;101198.17;1769628;79;21066;-49
2020/12/07 09:05:30;;;;;;;14.13;3.13;;;;;;;-5.05;62.13;101199.77;1771877;79;21072;-49
2020/12/07 09:07:57;;;;;;;7.77;1.87;;;;;;;-5.01;61.79;101197.30;1767848;79;21203;-50
2020/12/07 09:10:25;;;;;;;6.37;2.07;;;;;;;-4.96;61.73;101188.30;1762987;79;21159;-52
2020/12/07 09:12:53;;;;;;;10.70;2.73;;;;;;;-4.91;61.65;101185.82;1766787;79;21099;-50
2020/12/07 09:15:20;;;;;;;8.93;3.10;;;;;;;-4.86;61.67;101178.61;1730224;81;21436;-51
2020/12/07 09:17:47;;;;;;;9.23;2.70;;;;;;;-4.80;61.47;101181.44;1715403;81;21203;-51
2020/12/07 09:20:16;;;;;;;6.70;1.60;;;;;;;-4.73;61.14;101173.35;1710350;81;21073;-52
2020/12/07 09:22:43;;;;;;;6.43;1.70;;;;;;;-4.72;60.90;101171.20;1712056;81;21421;-50
2020/12/07 09:25:11;;;;;;;8.60;2.53;;;;;;;-4.71;60.87;101163.80;1712145;81;21226;-49
2020/12/07 09:27:38;;;;;;;10.67;3.63;;;;;;;-4.70;60.75;101153.77;1705913;83;21215;-49
2020/12/07 09:30:05;;;;;;;10.90;3.63;;;;;;;-4.67;60.56;101157.38;1707751;82;21671;-50
2020/12/07 09:32:33;;;;;;;8.30;2.57;;;;;;;-4.65;60.40;101157.02;1708913;82;21188;-51
2020/12/07 09:35:01;;;;;;;14.90;2.67;;;;;;;-4.64;60.39;101162.75;1707095;82;21218;-52
2020/12/07 09:37:28;;;;;;;9.10;2.27;;;;;;;-4.61;60.45;101157.62;1710513;82;21196;-51
2020/12/07 09:39:55;;;;;;;8.23;2.13;;;;;;;-4.59;60.08;101154.59;1704663;82;21629;-52
2020/12/07 09:42:23;;;;;;;11.70;2.23;;;;;;;-4.60;60.05;101146.69;1692983;83;21201;-53
2020/12/07 09:44:50;;;;;;;8.80;1.50;;;;;;;-4.58;59.95;101141.04;1693145;83;22059;-49
2020/12/07 09:47:18;;;;;;;7.63;2.27;;;;;;;-4.55;60.13;101138.53;1691133;83;21845;-52
2020/12/07 09:49:45;;;;;;;7.13;2.87;;;;;;;-4.51;59.86;101146.11;1688978;83;21234;-51
2020/12/07 09:52:12;;;;;;;13.77;3.57;;;;;;;-4.48;59.77;101137.00;1706108;82;21338;-49
2020/12/07 09:54:39;;;;;;;6.77;2.03;;;;;;;-4.47;59.67;101127.86;1708555;82;21213;-50
2020/12/07 09:57:07;;;;;;;6.73;1.87;;;;;;;-4.47;59.56;101120.39;1700803;82;21184;-50
2020/12/07 09:59:35;;;;;;;9.20;2.80;;;;;;;-4.44;59.61;101121.81;1697351;82;20982;-51
2020/12/07 10:02:02;;;;;;;7.27;2.60;;;;;;;-4.40;59.59;101120.64;1727500;81;21184;-50
2020/12/07 10:04:30;;;;;;;6.03;2.03;;;;;;;-4.38;59.45;101120.28;1726889;82;21402;-51
2020/12/07 10:06:57;;;;;;;5.37;1.83;;;;;;;-4.37;59.20;101123.80;1723269;82;21835;-52
2020/12/07 10:09:24;;;;;;;5.17;1.70;;;;;;;-4.39;59.34;101121.13;1717028;82;21192;-50
2020/12/07 10:11:51;;;;;;;10.47;3.30;;;;;;;-4.36;59.21;101105.88;1726194;82;21208;-53
2020/12/07 10:14:18;;;;;;;7.00;1.80;;;;;;;-4.35;58.98;101109.88;1720894;82;21212;-51
2020/12/07 10:16:46;;;;;;;9.80;3.10;;;;;;;-4.36;59.00;101112.45;1724868;82;21171;-51
2020/12/07 10:19:13;;;;;;;7.73;2.57;;;;;;;-4.33;59.14;101115.16;1726400;82;21193;-51
2020/12/07 10:21:41;;;;;;;6.97;1.77;;;;;;;-4.28;59.11;101103.98;1723240;82;21206;-52
2020/12/07 10:24:09;;;;;;;9.00;1.67;;;;;;;-4.24;58.96;101101.00;1726716;81;21732;-49
2020/12/07 10:26:36;;;;;;;6.33;1.73;;;;;;;-4.24;58.72;101106.27;1724896;82;21312;-50
2020/12/07 10:29:03;;;;;;;7.07;1.93;;;;;;;-4.26;58.61;101106.24;1723901;82;21213;-52
2020/12/07 10:31:32;;;;;;;5.37;1.97;;;;;;;-4.27;58.52;101111.44;1720831;82;21245;-50
2020/12/07 10:33:59;;;;;;;5.83;1.87;;;;;;;-4.29;58.27;101105.23;1725245;82;21188;-51
2020/12/07 10:36:26;;;;;;;8.27;2.57;;;;;;;-4.37;58.40;101098.41;1724234;82;21183;-54
2020/12/07 10:38:54;;;;;;;6.10;2.20;;;;;;;-4.41;58.70;101095.20;1727364;82;21212;-49
2020/12/07 10:41:28;;;;;;;9.80;2.43;;;;;;;-4.39;58.68;101101.83;1725371;82;21642;-52
2020/12/07 10:43:56;;;;;;;9.03;1.80;;;;;;;-4.39;58.82;101086.95;1671863;83;21259;-50
2020/12/07 10:46:24;;;;;;;8.83;2.17;;;;;;;-4.35;58.83;101090.59;1725004;82;21624;-53
2020/12/07 10:48:51;;;;;;;5.70;2.03;;;;;;;-4.31;58.78;101085.46;1726530;82;21223;-53
2020/12/07 10:51:18;;;;;;;11.33;2.03;;;;;;;-4.26;58.67;101085.20;1690646;83;21677;-50
2020/12/07 10:53:46;;;;;;;13.90;2.40;;;;;;;-4.25;58.66;101075.13;1662336;85;21646;-53
2020/12/07 10:56:14;;;;;;;7.27;1.67;;;;;;;-4.21;58.64;101080.08;1664613;85;21269;-53
2020/12/07 10:58:42;;;;;;;7.93;1.83;;;;;;;-4.20;58.54;101069.62;1662980;85;21524;-50
2020/12/07 11:01:10;;;;;;;4.60;1.43;;;;;;;-4.18;58.53;101060.47;1667940;85;21188;-51
2020/12/07 11:03:38;;;;;;;6.93;2.67;;;;;;;-4.16;58.33;101066.65;1668561;85;21193;-49
2020/12/07 11:06:13;;;;;;;8.27;2.53;;;;;;;-4.16;58.22;101067.96;1663895;85;21622;-50
2020/12/07 11:08:51;;;;;;;6.83;1.87;;;;;;;-4.18;58.04;101069.67;1724028;81;21179;-52
2020/12/07 11:11:20;;;;;;;6.97;1.80;;;;;;;-4.22;58.00;101077.87;1724816;82;21180;-53
2020/12/07 11:13:47;;;;;;;8.60;2.20;;;;;;;-4.24;57.89;101068.14;1726227;82;21189;-53
2020/12/07 11:16:15;;;;;;;6.67;1.80;;;;;;;-4.27;57.98;101062.39;1725642;82;21237;-52
2020/12/07 11:18:42;;;;;;;8.17;2.40;;;;;;;-4.28;58.11;101057.08;1726841;82;21374;-53
2020/12/07 11:21:15;;;;;;;8.27;1.73;;;;;;;-4.27;58.11;101067.65;1724334;82;21181;-50
2020/12/07 11:23:44;;;;;;;8.27;1.83;;;;;;;-4.27;58.10;101046.61;1726540;82;21151;-51
2020/12/07 11:26:11;;;;;;;8.50;2.30;;;;;;;-4.29;58.05;101054.87;1720920;82;21620;-51
2020/12/07 11:28:40;;;;;;;7.00;2.23;;;;;;;-4.34;58.10;101047.23;1726321;82;21168;-51
2020/12/07 11:31:15;;;;;;;9.40;3.17;;;;;;;-4.35;58.04;101041.53;1727083;82;22079;-50
2020/12/07 11:33:43;;;;;;;8.37;2.20;;;;;;;-4.38;58.09;101033.54;1727194;82;21159;-52
2020/12/07 11:36:13;;;;;;;9.47;2.00;;;;;;;-4.40;57.93;101039.16;1725956;82;21269;-48
2020/12/07 11:38:53;;;;;;;4.70;1.70;;;;;;;-4.44;58.23;101042.55;1725844;82;21650;-48
2020/12/07 11:46:28;;;;;;;8.07;1.60;;;;;;;-4.42;58.03;101042.61;1723995;82;21223;-53
2020/12/07 11:48:49;;;;;;;7.50;1.87;;;;;;;-4.45;58.06;101047.75;1723350;82;21641;-52
2020/12/07 11:51:16;;;;;;;10.17;1.67;;;;;;;-4.51;57.77;101030.48;1725388;82;21192;-52
2020/12/07 11:53:43;;;;;;;5.33;1.50;;;;;;;-4.57;57.98;101046.50;1663384;82;22100;-50
2020/12/07 11:56:11;;;;;;;3.73;1.13;;;;;;;-4.60;57.94;101035.91;1724682;82;21393;-51
2020/12/07 11:58:38;;;;;;;7.27;1.67;;;;;;;-4.62;57.87;101049.41;1723781;82;21662;-51
2020/12/07 12:01:05;;;;;;;9.37;1.80;;;;;;;-4.62;57.73;101036.27;1721585;82;21175;-53
2020/12/07 12:03:32;;;;;;;10.67;2.83;;;;;;;-4.61;57.98;101035.44;1723469;81;21637;-52
2020/12/07 12:05:59;;;;;;;4.43;1.77;;;;;;;-4.59;57.72;101031.09;1722969;82;21527;-53
2020/12/07 12:08:26;;;;;;;7.13;1.33;;;;;;;-4.61;57.81;101036.75;1668990;83;21231;-52
2020/12/07 12:10:54;;;;;;;8.17;1.93;;;;;;;-4.59;57.56;101031.52;1664252;83;21241;-50